sensor_id;sensor_type;location;lat;lon;timestamp;pressure;altitude;pressure_sealevel;temperature;humidity
11878;BME280;5998;42.676;23.268;2023-12-20T00:01:35;95210.06;;;1.57;100.00
11878;BME280;5998;42.676;23.268;2023-12-20T00:04:02;95209.59;;;1.50;100.00
11878;BME280;5998;42.676;23.268;2023-12-20T00:06:29;95207.72;;;1.55;100.00
11878;BME280;5998;42.676;23.268;2023-12-20T00:08:56;95202.91;;;1.57;100.00
11878;BME280;5998;42.676;23.268;2023-12-20T00:11:23;95198.94;;;1.55;100.00
11878;BME280;5998;42.676;23.268;2023-12-20T00:13:51;95192.59;;;1.56;100.00
11878;BME280;5998;42.676;23.268;2023-12-20T00:16:18;95192.25;;;1.62;100.00
11878;BME280;5998;42.676;23.268;2023-12-20T00:18:45;95187.69;;;1.78;100.00
11878;BME280;5998;42.676;23.268;2023-12-20T00:21:11;95186.56;;;1.84;100.00
11878;BME280;5998;42.676;23.268;2023-12-20T00:23:38;95183.59;;;1.91;100.00
11878;BME280;5998;42.676;23.268;2023-12-20T00:26:05;95168.78;;;1.85;100.00
11878;BME280;5998;42.676;23.268;2023-12-20T00:28:31;95162.44;;;1.81;100.00
11878;BME280;5998;42.676;23.268;2023-12-20T00:30:59;95166.72;;;1.76;100.00
11878;BME280;5998;42.676;23.268;2023-12-20T00:33:26;95167.03;;;1.70;100.00
11878;BME280;5998;42.676;23.268;2023-12-20T00:35:53;95159.91;;;1.60;100.00
11878;BME280;5998;42.676;23.268;2023-12-20T00:38:19;95156.78;;;1.53;100.00
11878;BME280;5998;42.676;23.268;2023-12-20T00:40:46;95154.88;;;1.59;100.00
11878;BME280;5998;42.676;23.268;2023-12-20T00:43:14;95146.16;;;1.53;100.00
11878;BME280;5998;42.676;23.268;2023-12-20T00:45:41;95145.16;;;1.44;100.00
11878;BME280;5998;42.676;23.268;2023-12-20T00:48:09;95157.63;;;1.44;100.00
11878;BME280;5998;42.676;23.268;2023-12-20T00:50:36;95145.63;;;1.51;100.00
11878;BME280;5998;42.676;23.268;2023-12-20T00:53:03;95149.03;;;1.57;100.00
11878;BME280;5998;42.676;23.268;2023-12-20T00:55:31;95145.13;;;1.49;100.00
11878;BME280;5998;42.676;23.268;2023-12-20T00:57:57;95146.47;;;1.47;100.00
11878;BME280;5998;42.676;23.268;2023-12-20T01:00:24;95139.28;;;1.47;100.00
11878;BME280;5998;42.676;23.268;2023-12-20T01:02:51;95140.56;;;1.55;100.00
11878;BME280;5998;42.676;23.268;2023-12-20T01:05:19;95137.34;;;1.63;100.00
11878;BME280;5998;42.676;23.268;2023-12-20T01:07:48;95131.59;;;1.51;100.00
11878;BME280;5998;42.676;23.268;2023-12-20T01:10:15;95126.47;;;1.59;100.00
11878;BME280;5998;42.676;23.268;2023-12-20T01:12:43;95115.88;;;1.54;100.00
11878;BME280;5998;42.676;23.268;2023-12-20T01:15:10;95115.66;;;1.51;100.00
11878;BME280;5998;42.676;23.268;2023-12-20T01:17:37;95120.38;;;1.59;100.00
11878;BME280;5998;42.676;23.268;2023-12-20T01:20:04;95121.19;;;1.54;100.00
11878;BME280;5998;42.676;23.268;2023-12-20T01:22:32;95116.19;;;1.53;100.00
11878;BME280;5998;42.676;23.268;2023-12-20T01:25:01;95102.94;;;1.48;100.00
11878;BME280;5998;42.676;23.268;2023-12-20T01:27:27;95107.97;;;1.49;100.00
11878;BME280;5998;42.676;23.268;2023-12-20T01:29:54;95096.56;;;1.49;100.00
11878;BME280;5998;42.676;23.268;2023-12-20T01:32:21;95097.59;;;1.53;100.00
11878;BME280;5998;42.676;23.268;2023-12-20T01:34:47;95093.94;;;1.44;100.00
11878;BME280;5998;42.676;23.268;2023-12-20T01:37:14;95093.69;;;1.40;100.00
11878;BME280;5998;42.676;23.268;2023-12-20T01:39:42;95087.88;;;1.38;100.00
11878;BME280;5998;42.676;23.268;2023-12-20T01:42:09;95087.19;;;1.23;100.00
11878;BME280;5998;42.676;23.268;2023-12-20T01:44:36;95089.06;;;1.17;100.00
11878;BME280;5998;42.676;23.268;2023-12-20T01:47:02;95078.47;;;1.17;100.00
11878;BME280;5998;42.676;23.268;2023-12-20T01:49:29;95072.66;;;1.15;100.00
11878;BME280;5998;42.676;23.268;2023-12-20T01:51:56;95077.63;;;1.22;100.00
11878;BME280;5998;42.676;23.268;2023-12-20T01:54:23;95072.66;;;1.15;100.00
11878;BME280;5998;42.676;23.268;2023-12-20T01:56:51;95074.53;;;1.09;100.00
11878;BME280;5998;42.676;23.268;2023-12-20T01:59:19;95063.63;;;1.11;100.00
11878;BME280;5998;42.676;23.268;2023-12-20T02:01:46;95063.56;;;1.21;100.00
11878;BME280;5998;42.676;23.268;2023-12-20T02:04:13;95062.34;;;1.08;100.00
11878;BME280;5998;42.676;23.268;2023-12-20T02:06:42;95064.47;;;1.06;100.00
11878;BME280;5998;42.676;23.268;2023-12-20T02:09:10;95064.19;;;1.08;100.00
11878;BME280;5998;42.676;23.268;2023-12-20T02:11:36;95059.75;;;0.98;100.00
11878;BME280;5998;42.676;23.268;2023-12-20T02:14:05;95056.06;;;0.89;100.00
11878;BME280;5998;42.676;23.268;2023-12-20T02:16:32;95052.00;;;1.07;100.00
11878;BME280;5998;42.676;23.268;2023-12-20T02:18:59;95048.88;;;0.95;100.00
11878;BME280;5998;42.676;23.268;2023-12-20T02:21:31;95037.31;;;0.76;100.00
11878;BME280;5998;42.676;23.268;2023-12-20T02:23:58;95043.22;;;0.63;100.00
11878;BME280;5998;42.676;23.268;2023-12-20T02:26:25;95043.22;;;0.63;100.00
11878;BME280;5998;42.676;23.268;2023-12-20T02:28:52;95035.53;;;0.61;100.00
11878;BME280;5998;42.676;23.268;2023-12-20T02:31:20;95032.31;;;0.69;100.00
11878;BME280;5998;42.676;23.268;2023-12-20T02:33:47;95022.00;;;0.68;100.00
11878;BME280;5998;42.676;23.268;2023-12-20T02:36:14;95023.50;;;0.84;100.00
11878;BME280;5998;42.676;23.268;2023-12-20T02:38:42;95018.13;;;0.94;100.00
11878;BME280;5998;42.676;23.268;2023-12-20T02:41:08;95010.75;;;0.86;100.00
11878;BME280;5998;42.676;23.268;2023-12-20T02:43:35;95006.25;;;0.86;100.00
11878;BME280;5998;42.676;23.268;2023-12-20T02:46:02;95019.53;;;0.81;100.00
11878;BME280;5998;42.676;23.268;2023-12-20T02:48:29;95015.16;;;0.56;100.00
11878;BME280;5998;42.676;23.268;2023-12-20T02:50:55;95020.97;;;0.58;100.00
11878;BME280;5998;42.676;23.268;2023-12-20T02:53:22;95014.59;;;0.65;100.00
11878;BME280;5998;42.676;23.268;2023-12-20T02:55:50;95014.63;;;0.59;100.00
11878;BME280;5998;42.676;23.268;2023-12-20T02:58:17;95014.44;;;0.36;100.00
11878;BME280;5998;42.676;23.268;2023-12-20T03:00:43;95020.25;;;0.38;100.00
11878;BME280;5998;42.676;23.268;2023-12-20T03:03:10;95018.22;;;0.10;100.00
11878;BME280;5998;42.676;23.268;2023-12-20T03:05:36;95021.38;;;0.22;100.00
11878;BME280;5998;42.676;23.268;2023-12-20T03:08:03;95016.03;;;0.32;100.00
11878;BME280;5998;42.676;23.268;2023-12-20T03:10:29;95021.38;;;0.27;100.00
11878;BME280;5998;42.676;23.268;2023-12-20T03:12:57;95006.25;;;0.22;100.00
11878;BME280;5998;42.676;23.268;2023-12-20T03:15:24;95013.94;;;0.29;100.00
11878;BME280;5998;42.676;23.268;2023-12-20T03:17:51;95010.50;;;0.28;100.00
11878;BME280;5998;42.676;23.268;2023-12-20T03:20:17;95015.56;;;0.25;100.00
11878;BME280;5998;42.676;23.268;2023-12-20T03:22:44;95009.69;;;0.28;100.00
11878;BME280;5998;42.676;23.268;2023-12-20T03:25:11;95011.56;;;0.22;100.00
11878;BME280;5998;42.676;23.268;2023-12-20T03:27:37;95002.56;;;0.23;100.00
11878;BME280;5998;42.676;23.268;2023-12-20T03:30:07;95003.59;;;0.32;100.00
11878;BME280;5998;42.676;23.268;2023-12-20T03:32:34;95002.31;;;0.20;100.00
11878;BME280;5998;42.676;23.268;2023-12-20T03:35:01;94997.25;;;0.28;100.00
11878;BME280;5998;42.676;23.268;2023-12-20T03:37:28;94994.09;;;0.21;100.00
11878;BME280;5998;42.676;23.268;2023-12-20T03:39:54;94998.94;;;-0.06;100.00
11878;BME280;5998;42.676;23.268;2023-12-20T03:42:21;94967.25;;;-0.31;100.00
11878;BME280;5998;42.676;23.268;2023-12-20T03:44:48;94991.78;;;-0.01;100.00
11878;BME280;5998;42.676;23.268;2023-12-20T03:47:16;94999.97;;;0.03;100.00
11878;BME280;5998;42.676;23.268;2023-12-20T03:49:42;94995.44;;;0.09;100.00
11878;BME280;5998;42.676;23.268;2023-12-20T03:52:09;94997.00;;;0.20;100.00
11878;BME280;5998;42.676;23.268;2023-12-20T03:54:36;94999.41;;;0.21;100.00
11878;BME280;5998;42.676;23.268;2023-12-20T03:57:03;94996.22;;;0.24;100.00
11878;BME280;5998;42.676;23.268;2023-12-20T03:59:30;94987.44;;;0.29;100.00
11878;BME280;5998;42.676;23.268;2023-12-20T04:02:01;94979.22;;;0.35;100.00
11878;BME280;5998;42.676;23.268;2023-12-20T04:04:29;94977.84;;;0.48;100.00
11878;BME280;5998;42.676;23.268;2023-12-20T04:06:55;94971.53;;;0.34;100.00
11878;BME280;5998;42.676;23.268;2023-12-20T04:09:22;94968.13;;;0.28;100.00
11878;BME280;5998;42.676;23.268;2023-12-20T04:11:48;94965.50;;;0.23;100.00
11878;BME280;5998;42.676;23.268;2023-12-20T04:14:15;94968.16;;;0.18;100.00
11878;BME280;5998;42.676;23.268;2023-12-20T04:16:42;94966.28;;;0.24;100.00
11878;BME280;5998;42.676;23.268;2023-12-20T04:19:09;94966.63;;;0.07;100.00
11878;BME280;5998;42.676;23.268;2023-12-20T04:21:36;94956.63;;;-0.11;100.00
11878;BME280;5998;42.676;23.268;2023-12-20T04:24:03;94956.34;;;-0.10;100.00
11878;BME280;5998;42.676;23.268;2023-12-20T04:26:30;94955.31;;;-0.19;100.00
11878;BME280;5998;42.676;23.268;2023-12-20T04:28:57;94953.19;;;-0.17;100.00
11878;BME280;5998;42.676;23.268;2023-12-20T04:31:23;94955.53;;;0.00;100.00
11878;BME280;5998;42.676;23.268;2023-12-20T04:33:50;94957.59;;;0.13;100.00
11878;BME280;5998;42.676;23.268;2023-12-20T04:36:17;94945.41;;;0.17;100.00
11878;BME280;5998;42.676;23.268;2023-12-20T04:38:45;94934.38;;;0.00;100.00
11878;BME280;5998;42.676;23.268;2023-12-20T04:41:11;94945.25;;;-0.12;100.00
11878;BME280;5998;42.676;23.268;2023-12-20T04:43:41;94946.59;;;-0.24;100.00
11878;BME280;5998;42.676;23.268;2023-12-20T04:46:07;94945.03;;;-0.40;100.00
11878;BME280;5998;42.676;23.268;2023-12-20T04:48:34;94943.16;;;-0.25;100.00
11878;BME280;5998;42.676;23.268;2023-12-20T04:51:01;94948.69;;;-0.21;100.00
11878;BME280;5998;42.676;23.268;2023-12-20T04:53:27;94935.53;;;-0.36;100.00
11878;BME280;5998;42.676;23.268;2023-12-20T04:55:55;94944.78;;;-0.34;100.00
11878;BME280;5998;42.676;23.268;2023-12-20T04:58:22;94940.81;;;-0.36;100.00
11878;BME280;5998;42.676;23.268;2023-12-20T05:00:49;94942.97;;;-0.58;100.00
11878;BME280;5998;42.676;23.268;2023-12-20T05:03:16;94945.09;;;-0.71;100.00
11878;BME280;5998;42.676;23.268;2023-12-20T05:05:42;94932.91;;;-0.56;100.00
11878;BME280;5998;42.676;23.268;2023-12-20T05:08:09;94933.44;;;-0.54;100.00
11878;BME280;5998;42.676;23.268;2023-12-20T05:10:36;94934.22;;;-0.49;100.00
11878;BME280;5998;42.676;23.268;2023-12-20T05:13:04;94926.28;;;-0.49;100.00
11878;BME280;5998;42.676;23.268;2023-12-20T05:15:31;94926.81;;;-0.47;100.00
11878;BME280;5998;42.676;23.268;2023-12-20T05:17:57;94932.63;;;-0.45;100.00
11878;BME280;5998;42.676;23.268;2023-12-20T05:20:24;94924.44;;;-0.53;100.00
11878;BME280;5998;42.676;23.268;2023-12-20T05:22:50;94928.16;;;-0.60;100.00
11878;BME280;5998;42.676;23.268;2023-12-20T05:25:17;94922.88;;;-0.70;100.00
11878;BME280;5998;42.676;23.268;2023-12-20T05:27:44;94922.63;;;-0.83;100.00
11878;BME280;5998;42.676;23.268;2023-12-20T05:30:13;94917.63;;;-0.80;100.00
11878;BME280;5998;42.676;23.268;2023-12-20T05:32:40;94911.25;;;-0.84;100.00
11878;BME280;5998;42.676;23.268;2023-12-20T05:35:07;94919.72;;;-0.87;100.00
11878;BME280;5998;42.676;23.268;2023-12-20T05:37:33;94916.56;;;-0.84;100.00
11878;BME280;5998;42.676;23.268;2023-12-20T05:40:00;94917.88;;;-0.86;100.00
11878;BME280;5998;42.676;23.268;2023-12-20T05:42:27;94911.53;;;-1.05;100.00
11878;BME280;5998;42.676;23.268;2023-12-20T05:44:54;94912.56;;;-1.37;100.00
11878;BME280;5998;42.676;23.268;2023-12-20T05:47:22;94917.06;;;-1.17;100.00
11878;BME280;5998;42.676;23.268;2023-12-20T05:49:48;94911.53;;;-1.21;100.00
11878;BME280;5998;42.676;23.268;2023-12-20T05:52:16;94912.03;;;-1.29;100.00
11878;BME280;5998;42.676;23.268;2023-12-20T05:54:42;94909.16;;;-1.27;100.00
11878;BME280;5998;42.676;23.268;2023-12-20T05:57:09;94907.06;;;-1.00;100.00
11878;BME280;5998;42.676;23.268;2023-12-20T05:59:36;94906.50;;;-1.17;100.00
11878;BME280;5998;42.676;23.268;2023-12-20T06:02:03;94904.91;;;-1.23;100.00
11878;BME280;5998;42.676;23.268;2023-12-20T06:04:31;94908.91;;;-1.10;100.00
11878;BME280;5998;42.676;23.268;2023-12-20T06:06:58;94896.47;;;-1.20;100.00
11878;BME280;5998;42.676;23.268;2023-12-20T06:09:25;94906.50;;;-1.12;100.00
11878;BME280;5998;42.676;23.268;2023-12-20T06:11:51;94904.94;;;-1.38;100.00
11878;BME280;5998;42.676;23.268;2023-12-20T06:14:18;94898.31;;;-1.21;100.00
11878;BME280;5998;42.676;23.268;2023-12-20T06:16:45;94903.88;;;-1.12;100.00
11878;BME280;5998;42.676;23.268;2023-12-20T06:19:11;94916.03;;;-1.01;100.00
11878;BME280;5998;42.676;23.268;2023-12-20T06:21:40;94920.25;;;-0.85;100.00
11878;BME280;5998;42.676;23.268;2023-12-20T06:24:07;94913.38;;;-0.81;100.00
11878;BME280;5998;42.676;23.268;2023-12-20T06:26:35;94919.72;;;-0.82;100.00
11878;BME280;5998;42.676;23.268;2023-12-20T06:29:01;94916.00;;;-0.96;100.00
11878;BME280;5998;42.676;23.268;2023-12-20T06:31:28;94916.56;;;-0.94;100.00
11878;BME280;5998;42.676;23.268;2023-12-20T06:33:54;94911.53;;;-1.05;100.00
11878;BME280;5998;42.676;23.268;2023-12-20T06:36:23;94915.75;;;-1.20;100.00
11878;BME280;5998;42.676;23.268;2023-12-20T06:38:51;94904.94;;;-1.33;100.00
11878;BME280;5998;42.676;23.268;2023-12-20T06:41:17;94894.84;;;-1.56;100.00
11878;BME280;5998;42.676;23.268;2023-12-20T06:43:44;94899.31;;;-1.62;100.00
11878;BME280;5998;42.676;23.268;2023-12-20T06:46:11;94902.00;;;-1.37;100.00
11878;BME280;5998;42.676;23.268;2023-12-20T06:48:38;94900.69;;;-1.14;100.00
11878;BME280;5998;42.676;23.268;2023-12-20T06:51:05;94898.06;;;-1.04;100.00
11878;BME280;5998;42.676;23.268;2023-12-20T06:53:32;94893.31;;;-0.97;100.00
11878;BME280;5998;42.676;23.268;2023-12-20T06:56:00;94893.81;;;-0.95;100.00
11878;BME280;5998;42.676;23.268;2023-12-20T06:58:26;94887.72;;;-0.75;100.00
11878;BME280;5998;42.676;23.268;2023-12-20T07:00:53;94880.56;;;-0.65;100.00
11878;BME280;5998;42.676;23.268;2023-12-20T07:03:20;94899.59;;;-0.52;100.00
11878;BME280;5998;42.676;23.268;2023-12-20T07:05:46;94878.13;;;-0.46;100.00
11878;BME280;5998;42.676;23.268;2023-12-20T07:08:13;94874.34;;;-0.20;100.00
11878;BME280;5998;42.676;23.268;2023-12-20T07:10:41;94877.22;;;-0.06;100.00
11878;BME280;5998;42.676;23.268;2023-12-20T07:13:09;94867.72;;;-0.17;100.00
11878;BME280;5998;42.676;23.268;2023-12-20T07:15:35;94873.44;;;0.10;100.00
11878;BME280;5998;42.676;23.268;2023-12-20T07:18:02;94871.03;;;0.14;100.00
11878;BME280;5998;42.676;23.268;2023-12-20T07:20:30;94862.63;;;0.02;100.00
11878;BME280;5998;42.676;23.268;2023-12-20T07:22:57;94862.28;;;0.13;100.00
11878;BME280;5998;42.676;23.268;2023-12-20T07:25:24;94844.44;;;-0.15;100.00
11878;BME280;5998;42.676;23.268;2023-12-20T07:27:50;94847.78;;;0.00;100.00
11878;BME280;5998;42.676;23.268;2023-12-20T07:30:18;94857.59;;;-0.05;100.00
11878;BME280;5998;42.676;23.268;2023-12-20T07:32:45;94850.31;;;-0.28;100.00
11878;BME280;5998;42.676;23.268;2023-12-20T07:35:12;94848.00;;;-0.45;100.00
11878;BME280;5998;42.676;23.268;2023-12-20T07:37:39;94853.31;;;-0.60;100.00
11878;BME280;5998;42.676;23.268;2023-12-20T07:40:07;94856.97;;;-0.41;100.00
11878;BME280;5998;42.676;23.268;2023-12-20T07:42:34;94864.59;;;-0.29;100.00
11878;BME280;5998;42.676;23.268;2023-12-20T07:45:01;94862.50;;;-0.37;100.00
11878;BME280;5998;42.676;23.268;2023-12-20T07:47:29;94858.81;;;-0.46;100.00
11878;BME280;5998;42.676;23.268;2023-12-20T07:49:55;94859.59;;;-0.41;100.00
11878;BME280;5998;42.676;23.268;2023-12-20T07:52:23;94848.78;;;-0.39;100.00
11878;BME280;5998;42.676;23.268;2023-12-20T07:54:49;94854.78;;;-0.24;100.00
11878;BME280;5998;42.676;23.268;2023-12-20T07:57:16;94857.97;;;-0.27;100.00
11878;BME280;5998;42.676;23.268;2023-12-20T07:59:43;94850.75;;;-0.06;100.00
11878;BME280;5998;42.676;23.268;2023-12-20T08:02:10;94849.59;;;0.10;100.00
11878;BME280;5998;42.676;23.268;2023-12-20T08:04:38;94840.78;;;0.20;100.00
11878;BME280;5998;42.676;23.268;2023-12-20T08:07:04;94838.69;;;0.22;100.00
11878;BME280;5998;42.676;23.268;2023-12-20T08:09:31;94846.59;;;0.27;100.00
11878;BME280;5998;42.676;23.268;2023-12-20T08:11:59;94840.97;;;0.38;100.00
11878;BME280;5998;42.676;23.268;2023-12-20T08:14:26;94845.06;;;0.59;100.00
11878;BME280;5998;42.676;23.268;2023-12-20T08:16:52;94835.91;;;0.76;100.00
11878;BME280;5998;42.676;23.268;2023-12-20T08:19:19;94822.22;;;0.97;100.00
11878;BME280;5998;42.676;23.268;2023-12-20T08:21:47;94819.59;;;1.21;100.00
11878;BME280;5998;42.676;23.268;2023-12-20T08:24:13;94819.56;;;1.26;100.00
11878;BME280;5998;42.676;23.268;2023-12-20T08:26:40;94818.38;;;1.37;100.00
11878;BME280;5998;42.676;23.268;2023-12-20T08:29:07;94816.09;;;1.49;100.00
11878;BME280;5998;42.676;23.268;2023-12-20T08:31:33;94812.72;;;1.44;100.00
11878;BME280;5998;42.676;23.268;2023-12-20T08:34:00;94801.53;;;1.47;100.00
11878;BME280;5998;42.676;23.268;2023-12-20T08:36:27;94811.22;;;1.09;100.00
11878;BME280;5998;42.676;23.268;2023-12-20T08:38:55;94794.03;;;1.06;100.00
11878;BME280;5998;42.676;23.268;2023-12-20T08:41:21;94800.06;;;1.12;100.00
11878;BME280;5998;42.676;23.268;2023-12-20T08:43:48;94792.81;;;0.94;100.00
11878;BME280;5998;42.676;23.268;2023-12-20T08:46:16;94787.50;;;0.94;100.00
11878;BME280;5998;42.676;23.268;2023-12-20T08:48:43;94783.31;;;0.59;100.00
11878;BME280;5998;42.676;23.268;2023-12-20T08:51:10;94784.03;;;0.70;100.00
11878;BME280;5998;42.676;23.268;2023-12-20T08:53:37;94791.56;;;0.52;100.00
11878;BME280;5998;42.676;23.268;2023-12-20T08:56:05;94785.19;;;0.87;100.00
11878;BME280;5998;42.676;23.268;2023-12-20T08:58:32;94778.88;;;0.83;100.00
11878;BME280;5998;42.676;23.268;2023-12-20T09:00:58;94767.88;;;0.66;100.00
11878;BME280;5998;42.676;23.268;2023-12-20T09:03:25;94770.47;;;1.00;100.00
11878;BME280;5998;42.676;23.268;2023-12-20T09:05:52;94769.88;;;1.08;100.00
11878;BME280;5998;42.676;23.268;2023-12-20T09:08:18;94748.94;;;1.30;100.00
11878;BME280;5998;42.676;23.268;2023-12-20T09:10:45;94749.34;;;1.42;100.00
11878;BME280;5998;42.676;23.268;2023-12-20T09:13:13;94743.34;;;1.55;100.00
11878;BME280;5998;42.676;23.268;2023-12-20T09:15:40;94725.00;;;1.59;100.00
11878;BME280;5998;42.676;23.268;2023-12-20T09:18:07;94721.34;;;1.73;100.00
11878;BME280;5998;42.676;23.268;2023-12-20T09:20:34;94707.91;;;1.46;100.00
11878;BME280;5998;42.676;23.268;2023-12-20T09:23:01;94700.78;;;1.23;100.00
11878;BME280;5998;42.676;23.268;2023-12-20T09:25:28;94693.34;;;1.44;100.00
11878;BME280;5998;42.676;23.268;2023-12-20T09:27:55;94698.41;;;1.40;100.00
11878;BME280;5998;42.676;23.268;2023-12-20T09:30:23;94687.63;;;1.55;100.00
11878;BME280;5998;42.676;23.268;2023-12-20T09:32:50;94687.31;;;1.57;100.00
11878;BME280;5998;42.676;23.268;2023-12-20T09:35:17;94688.84;;;1.63;100.00
11878;BME280;5998;42.676;23.268;2023-12-20T09:37:43;94686.81;;;1.73;100.00
11878;BME280;5998;42.676;23.268;2023-12-20T09:40:13;94672.19;;;1.76;100.00
11878;BME280;5998;42.676;23.268;2023-12-20T09:42:48;94667.09;;;1.79;100.00
11878;BME280;5998;42.676;23.268;2023-12-20T09:45:15;94664.22;;;1.76;100.00
11878;BME280;5998;42.676;23.268;2023-12-20T09:47:49;94631.84;;;1.42;100.00
11878;BME280;5998;42.676;23.268;2023-12-20T09:50:20;94656.78;;;1.78;100.00
11878;BME280;5998;42.676;23.268;2023-12-20T09:52:49;94659.63;;;1.82;100.00
11878;BME280;5998;42.676;23.268;2023-12-20T09:55:17;94629.25;;;2.06;100.00
11878;BME280;5998;42.676;23.268;2023-12-20T09:57:44;94640.25;;;2.00;100.00
11878;BME280;5998;42.676;23.268;2023-12-20T10:00:12;94643.66;;;1.87;100.00
11878;BME280;5998;42.676;23.268;2023-12-20T10:02:44;94635.94;;;2.04;100.00
11878;BME280;5998;42.676;23.268;2023-12-20T10:05:16;94606.34;;;1.59;100.00
11878;BME280;5998;42.676;23.268;2023-12-20T10:07:45;94641.94;;;1.77;100.00
11878;BME280;5998;42.676;23.268;2023-12-20T10:10:13;94639.41;;;1.86;100.00
11878;BME280;5998;42.676;23.268;2023-12-20T10:12:40;94629.75;;;2.08;100.00
11878;BME280;5998;42.676;23.268;2023-12-20T10:15:07;94636.41;;;2.24;100.00
11878;BME280;5998;42.676;23.268;2023-12-20T10:17:35;94614.88;;;2.39;100.00
11878;BME280;5998;42.676;23.268;2023-12-20T10:20:03;94616.34;;;2.32;100.00
11878;BME280;5998;42.676;23.268;2023-12-20T10:22:36;94605.63;;;2.51;100.00
11878;BME280;5998;42.676;23.268;2023-12-20T10:25:04;94600.84;;;2.53;100.00
11878;BME280;5998;42.676;23.268;2023-12-20T10:27:30;94596.28;;;2.39;100.00
11878;BME280;5998;42.676;23.268;2023-12-20T10:29:58;94588.84;;;2.69;100.00
11878;BME280;5998;42.676;23.268;2023-12-20T10:32:26;94577.88;;;2.70;100.00
11878;BME280;5998;42.676;23.268;2023-12-20T10:34:55;94569.53;;;2.77;100.00
11878;BME280;5998;42.676;23.268;2023-12-20T10:37:22;94567.03;;;2.94;100.00
11878;BME280;5998;42.676;23.268;2023-12-20T10:39:51;94561.25;;;3.28;100.00
11878;BME280;5998;42.676;23.268;2023-12-20T10:42:22;94523.81;;;3.02;100.00
11878;BME280;5998;42.676;23.268;2023-12-20T10:44:49;94550.13;;;3.26;100.00
11878;BME280;5998;42.676;23.268;2023-12-20T10:47:16;94534.53;;;3.33;100.00
11878;BME280;5998;42.676;23.268;2023-12-20T10:49:43;94536.22;;;3.65;100.00
11878;BME280;5998;42.676;23.268;2023-12-20T10:52:12;94525.81;;;4.07;100.00
11878;BME280;5998;42.676;23.268;2023-12-20T10:54:39;94530.72;;;4.14;100.00
11878;BME280;5998;42.676;23.268;2023-12-20T10:57:08;94513.66;;;4.24;100.00
11878;BME280;5998;42.676;23.268;2023-12-20T10:59:37;94523.94;;;4.39;100.00
11878;BME280;5998;42.676;23.268;2023-12-20T11:02:04;94514.88;;;4.48;100.00
11878;BME280;5998;42.676;23.268;2023-12-20T11:04:38;94504.06;;;4.45;100.00
11878;BME280;5998;42.676;23.268;2023-12-20T11:07:15;94504.97;;;4.40;100.00
11878;BME280;5998;42.676;23.268;2023-12-20T11:09:49;94476.63;;;4.53;100.00
11878;BME280;5998;42.676;23.268;2023-12-20T11:12:27;94488.06;;;4.53;100.00
11878;BME280;5998;42.676;23.268;2023-12-20T11:14:58;94491.41;;;4.67;100.00
11878;BME280;5998;42.676;23.268;2023-12-20T11:17:29;94489.44;;;4.42;100.00
11878;BME280;5998;42.676;23.268;2023-12-20T11:20:06;94471.94;;;4.67;100.00
11878;BME280;5998;42.676;23.268;2023-12-20T11:22:33;94468.00;;;4.64;100.00
11878;BME280;5998;42.676;23.268;2023-12-20T11:25:03;94455.31;;;4.53;100.00
11878;BME280;5998;42.676;23.268;2023-12-20T11:27:33;94465.06;;;4.66;100.00
11878;BME280;5998;42.676;23.268;2023-12-20T11:30:02;94456.47;;;4.30;100.00
11878;BME280;5998;42.676;23.268;2023-12-20T11:32:31;94446.66;;;4.47;100.00
11878;BME280;5998;42.676;23.268;2023-12-20T11:35:01;94436.28;;;4.37;100.00
11878;BME280;5998;42.676;23.268;2023-12-20T11:37:32;94429.91;;;4.72;100.00
11878;BME280;5998;42.676;23.268;2023-12-20T11:40:03;94430.09;;;4.85;100.00
11878;BME280;5998;42.676;23.268;2023-12-20T11:42:37;94422.72;;;4.99;100.00
11878;BME280;5998;42.676;23.268;2023-12-20T11:45:05;94411.72;;;5.00;100.00
11878;BME280;5998;42.676;23.268;2023-12-20T11:47:32;94428.22;;;4.94;100.00
11878;BME280;5998;42.676;23.268;2023-12-20T11:50:00;94411.75;;;4.83;100.00
11878;BME280;5998;42.676;23.268;2023-12-20T11:52:29;94405.16;;;4.72;100.00
11878;BME280;5998;42.676;23.268;2023-12-20T11:54:57;94397.13;;;4.89;100.00
11878;BME280;5998;42.676;23.268;2023-12-20T11:57:24;94388.69;;;5.04;100.00
11878;BME280;5998;42.676;23.268;2023-12-20T11:59:52;94388.84;;;5.08;100.00
11878;BME280;5998;42.676;23.268;2023-12-20T12:02:19;94376.22;;;5.34;100.00
11878;BME280;5998;42.676;23.268;2023-12-20T12:04:48;94370.22;;;5.63;100.00
11878;BME280;5998;42.676;23.268;2023-12-20T12:07:16;94357.81;;;5.50;100.00
11878;BME280;5998;42.676;23.268;2023-12-20T12:09:42;94369.47;;;5.45;100.00
11878;BME280;5998;42.676;23.268;2023-12-20T12:12:09;94355.34;;;5.27;100.00
11878;BME280;5998;42.676;23.268;2023-12-20T12:14:37;94349.97;;;5.45;100.00
11878;BME280;5998;42.676;23.268;2023-12-20T12:17:10;94346.84;;;5.43;100.00
11878;BME280;5998;42.676;23.268;2023-12-20T12:19:36;94349.34;;;5.48;100.00
11878;BME280;5998;42.676;23.268;2023-12-20T12:22:06;94344.53;;;5.32;100.00
11878;BME280;5998;42.676;23.268;2023-12-20T12:24:35;94338.59;;;5.01;100.00
11878;BME280;5998;42.676;23.268;2023-12-20T12:27:02;94324.94;;;5.11;100.00
11878;BME280;5998;42.676;23.268;2023-12-20T12:29:30;94331.69;;;5.09;100.00
11878;BME280;5998;42.676;23.268;2023-12-20T12:31:56;94337.47;;;5.28;100.00
11878;BME280;5998;42.676;23.268;2023-12-20T12:34:27;94334.91;;;5.49;100.00
11878;BME280;5998;42.676;23.268;2023-12-20T12:36:54;94339.91;;;5.50;100.00
11878;BME280;5998;42.676;23.268;2023-12-20T12:39:20;94342.63;;;5.33;100.00
11878;BME280;5998;42.676;23.268;2023-12-20T12:41:47;94343.75;;;5.32;100.00
11878;BME280;5998;42.676;23.268;2023-12-20T12:44:13;94336.09;;;5.13;100.00
11878;BME280;5998;42.676;23.268;2023-12-20T12:46:40;94332.56;;;5.38;100.00
11878;BME280;5998;42.676;23.268;2023-12-20T12:49:07;94327.66;;;4.94;100.00
11878;BME280;5998;42.676;23.268;2023-12-20T12:51:35;94332.00;;;5.24;100.00
11878;BME280;5998;42.676;23.268;2023-12-20T12:54:02;94327.41;;;5.33;100.00
11878;BME280;5998;42.676;23.268;2023-12-20T12:56:29;94326.94;;;5.23;100.00
11878;BME280;5998;42.676;23.268;2023-12-20T12:58:56;94326.97;;;5.14;100.00